Time;durP1;ratioP1;P1;durP2;ratioP2;P2;SDS_P1;SDS_P2;PMS_P1;PMS_P2;Temp;Humidity;BMP_temperature;BMP_pressure;BME280_temperature;BME280_humidity;BME280_pressure;Samples;Min_cycle;Max_cycle;Signal;HPM_P1;HPM_P2
2022/08/22 00:00:19;;;;;;;12.93;6.60;;;;;;;19.32;64.85;101324.75;4954954;28;120105;-82
2022/08/22 00:03:36;;;;;;;12.63;6.05;;;;;;;19.32;64.74;101325.50;4928052;28;121012;-82
2022/08/22 00:06:15;;;;;;;11.88;5.82;;;;;;;19.28;65.02;101324.22;4914776;28;121812;-82
2022/08/22 00:08:54;;;;;;;12.17;6.73;;;;;;;19.32;65.14;101325.50;4940832;28;120273;-82
2022/08/22 00:11:32;;;;;;;15.65;7.75;;;;;;;19.33;65.98;101326.25;4945422;28;121066;-82
2022/08/22 00:14:16;;;;;;;12.82;7.28;;;;;;;19.35;66.06;101326.53;4940285;28;120013;-82
2022/08/22 00:17:19;;;;;;;11.20;6.57;;;;;;;19.36;66.07;101330.81;4929200;28;120762;-82
2022/08/22 00:20:17;;;;;;;11.55;6.30;;;;;;;19.33;64.58;101332.59;4944342;28;120417;-82
2022/08/22 00:23:16;;;;;;;11.90;6.90;;;;;;;19.29;64.96;101332.06;4940459;28;120437;-82
2022/08/22 00:25:57;;;;;;;12.77;6.82;;;;;;;19.29;65.80;101332.06;4944527;28;122373;-82
2022/08/22 00:28:28;;;;;;;13.98;7.55;;;;;;;19.31;65.95;101335.09;4942539;28;119968;-82
2022/08/22 00:31:13;;;;;;;13.07;7.05;;;;;;;19.33;65.90;101342.94;4947515;28;120210;-82
2022/08/22 00:34:01;;;;;;;12.75;6.60;;;;;;;19.35;65.60;101334.88;4928576;28;121378;-82
2022/08/22 00:36:39;;;;;;;11.20;7.20;;;;;;;19.35;65.86;101336.88;4929837;28;119948;-82
2022/08/22 00:39:34;;;;;;;14.83;9.60;;;;;;;19.39;66.87;101340.19;4940901;28;120520;-81
2022/08/22 00:42:39;;;;;;;12.90;7.53;;;;;;;19.40;66.19;101342.50;4906173;28;120447;-81
2022/08/22 00:45:42;;;;;;;9.48;6.10;;;;;;;19.33;64.14;101342.94;4938982;28;120633;-82
2022/08/22 00:48:27;;;;;;;10.37;6.10;;;;;;;19.23;64.28;101338.84;4938920;28;119880;-81
2022/08/22 00:51:05;;;;;;;9.50;6.07;;;;;;;19.16;64.18;101342.06;4890691;28;122135;-82
2022/08/22 00:53:46;;;;;;;14.53;8.30;;;;;;;19.10;64.68;101330.13;4945715;28;119724;-82
2022/08/22 00:56:46;;;;;;;12.00;8.33;;;;;;;19.07;65.31;101331.13;4931737;28;122626;-82
2022/08/22 00:59:27;;;;;;;13.02;7.53;;;;;;;19.04;65.27;101332.88;4942935;28;120265;-81
2022/08/22 01:02:02;;;;;;;12.90;7.50;;;;;;;18.97;65.69;101325.75;4923794;28;120568;-82
2022/08/22 01:04:40;;;;;;;12.45;8.10;;;;;;;19.02;65.44;101335.41;4925191;28;121481;-82
2022/08/22 01:07:14;;;;;;;11.87;8.10;;;;;;;19.02;66.06;101336.16;4945562;28;120477;-82
2022/08/22 01:10:13;;;;;;;10.48;7.32;;;;;;;18.93;64.78;101336.34;4944300;28;120523;-82
2022/08/22 01:12:59;;;;;;;10.97;6.83;;;;;;;18.90;64.60;101334.53;4928534;28;120378;-82
2022/08/22 01:15:29;;;;;;;12.25;7.00;;;;;;;18.83;65.29;101337.00;4927756;28;121340;-81
2022/08/22 01:17:57;;;;;;;10.65;8.57;;;;;;;18.84;66.38;101344.84;4944921;28;120601;-82
2022/08/22 01:20:35;;;;;;;13.50;7.10;;;;;;;18.79;64.55;101344.81;4930323;28;121215;-82
2022/08/22 01:23:17;;;;;;;11.67;7.00;;;;;;;18.68;64.46;101345.44;4944495;28;119589;-82
2022/08/22 01:26:11;;;;;;;11.98;8.18;;;;;;;18.65;65.05;101349.97;4925151;28;121535;-82
2022/08/22 01:28:57;;;;;;;11.73;7.72;;;;;;;18.57;66.08;101345.31;4927783;28;119820;-82
2022/08/22 01:31:58;;;;;;;13.20;7.63;;;;;;;18.62;65.72;101350.16;4927697;28;122651;-82
2022/08/22 01:34:52;;;;;;;12.00;7.50;;;;;;;18.51;65.17;101347.28;4885725;28;120166;-83
2022/08/22 01:37:27;;;;;;;13.18;7.65;;;;;;;18.55;65.54;101351.38;4944158;28;121258;-82
2022/08/22 01:40:16;;;;;;;11.52;6.95;;;;;;;18.53;65.46;101351.09;4944027;28;121693;-83
2022/08/22 01:42:41;;;;;;;13.45;7.47;;;;;;;18.55;66.28;101347.81;4947444;28;120145;-82
2022/08/22 01:45:13;;;;;;;11.77;7.20;;;;;;;18.57;66.15;101357.19;4904399;28;122331;-82
2022/08/22 01:47:53;;;;;;;11.32;7.75;;;;;;;18.60;65.95;101359.00;4943846;28;121215;-82
2022/08/22 01:50:31;;;;;;;15.10;9.80;;;;;;;18.59;65.84;101359.47;4945340;28;122173;-82
2022/08/22 01:53:04;;;;;;;17.75;9.80;;;;;;;18.57;66.09;101367.53;4926930;28;120592;-82
2022/08/22 01:55:30;;;;;;;13.40;9.80;;;;;;;18.54;65.92;101366.50;4906024;28;122354;-82
2022/08/22 01:57:59;;;;;;;12.20;10.17;;;;;;;18.54;66.41;101362.97;4940658;28;120740;-82
2022/08/22 02:00:32;;;;;;;14.35;10.75;;;;;;;18.55;67.06;101358.94;4943107;28;120614;-83
2022/08/22 02:03:09;;;;;;;10.07;7.60;;;;;;;18.63;66.60;101366.38;4940220;28;122053;-82
2022/08/22 02:05:56;;;;;;;11.98;7.78;;;;;;;18.63;65.55;101365.59;4947057;28;119900;-82
2022/08/22 02:08:41;;;;;;;11.13;8.32;;;;;;;18.60;66.61;101370.09;4910470;28;121753;-82
2022/08/22 02:11:50;;;;;;;10.65;6.53;;;;;;;18.49;65.03;101364.44;4928835;28;119741;-81
2022/08/22 02:14:31;;;;;;;10.70;7.60;;;;;;;18.50;65.49;101370.75;4944143;28;120895;-82
2022/08/22 02:17:38;;;;;;;10.93;7.55;;;;;;;18.50;66.20;101367.97;4947885;28;120360;-82
2022/08/22 02:20:49;;;;;;;12.15;8.63;;;;;;;18.50;66.95;101367.97;4912143;28;120372;-81
2022/08/22 02:23:42;;;;;;;10.45;7.68;;;;;;;18.44;66.63;101356.03;4930676;28;120639;-82
2022/08/22 02:26:27;;;;;;;14.60;7.97;;;;;;;18.32;66.64;101353.13;4938338;28;121931;-82
2022/08/22 02:29:03;;;;;;;15.15;8.02;;;;;;;18.26;65.87;101355.09;4960827;28;121680;-81
2022/08/22 02:31:44;;;;;;;15.55;8.48;;;;;;;18.25;66.98;101355.59;4951759;28;120636;-82
2022/08/22 02:34:19;;;;;;;11.48;7.93;;;;;;;18.27;66.91;101361.41;4947112;28;119974;-81
2022/08/22 02:36:55;;;;;;;13.43;7.80;;;;;;;18.29;66.61;101365.22;4958887;28;123874;-82
2022/08/22 02:39:53;;;;;;;11.98;7.95;;;;;;;18.32;66.53;101358.69;4941947;28;121640;-82
2022/08/22 02:42:27;;;;;;;13.38;8.07;;;;;;;18.35;66.96;101352.16;4867125;28;119943;-82
2022/08/22 02:45:04;;;;;;;14.07;8.23;;;;;;;18.35;67.02;101357.72;4929464;28;120588;-82
2022/08/22 02:48:03;;;;;;;13.77;8.90;;;;;;;18.33;66.95;101360.22;4925839;28;123487;-82
2022/08/22 02:50:57;;;;;;;15.18;8.18;;;;;;;18.24;65.97;101360.38;4913162;28;120041;-82
2022/08/22 02:53:52;;;;;;;15.23;9.55;;;;;;;18.20;67.12;101362.56;4928193;28;120549;-82
2022/08/22 02:56:23;;;;;;;16.17;9.75;;;;;;;18.19;66.22;101358.28;4917024;28;121401;-82
2022/08/22 02:59:11;;;;;;;10.75;8.20;;;;;;;18.19;65.88;101363.06;4930794;28;120257;-82
2022/08/22 03:01:42;;;;;;;13.65;9.48;;;;;;;18.19;66.37;101361.06;4945480;28;121844;-82
2022/08/22 03:04:28;;;;;;;12.90;8.73;;;;;;;18.20;65.88;101364.59;4929519;28;120155;-82
2022/08/22 03:06:57;;;;;;;11.93;8.80;;;;;;;18.20;66.55;101372.91;4961446;28;121388;-82
2022/08/22 03:09:30;;;;;;;11.53;9.07;;;;;;;18.22;66.82;101376.75;4930458;28;121923;-82
2022/08/22 03:12:40;;;;;;;32.67;10.07;;;;;;;18.24;66.86;101367.94;4960759;28;119943;-82
2022/08/22 03:15:09;;;;;;;11.53;8.10;;;;;;;18.27;66.08;101378.84;4895010;28;120804;-82
2022/08/22 03:17:49;;;;;;;15.33;9.03;;;;;;;18.20;66.92;101365.34;4930692;28;122650;-82
2022/08/22 03:20:50;;;;;;;12.77;9.57;;;;;;;18.28;67.00;101372.03;4964794;28;119832;-82
2022/08/22 03:23:22;;;;;;;16.05;11.50;;;;;;;18.30;67.21;101375.09;4921663;28;120634;-82
2022/08/22 03:26:00;;;;;;;14.93;12.40;;;;;;;18.31;67.07;101378.63;4930450;28;120648;-82
2022/08/22 03:28:36;;;;;;;13.13;11.10;;;;;;;18.28;67.06;101371.28;4930609;28;121822;-82
2022/08/22 03:31:18;;;;;;;14.38;11.68;;;;;;;18.30;67.62;101375.09;4940108;28;120340;-82
2022/08/22 03:34:05;;;;;;;12.73;10.13;;;;;;;18.28;66.53;101371.28;4944815;28;120281;-82
2022/08/22 03:36:31;;;;;;;13.23;9.80;;;;;;;18.21;66.85;101352.22;4935939;28;123389;-82
2022/08/22 03:39:18;;;;;;;13.53;10.07;;;;;;;18.26;66.92;101368.22;4927965;28;123197;-82
2022/08/22 03:41:49;;;;;;;14.75;10.85;;;;;;;18.24;67.28;101371.47;4929536;28;120043;-82
2022/08/22 03:44:15;;;;;;;14.90;10.60;;;;;;;18.20;67.18;101376.47;4924375;28;120918;-81
2022/08/22 03:46:46;;;;;;;13.13;9.88;;;;;;;18.20;66.06;101378.47;4928099;28;119965;-82
2022/08/22 03:49:51;;;;;;;12.05;9.38;;;;;;;18.18;66.46;101376.19;4927643;28;122371;-82
2022/08/22 03:55:54;;;;;;;10.97;9.00;;;;;;;18.08;65.71;101380.38;4944937;28;119813;-82
2022/08/22 03:58:39;;;;;;;13.73;9.83;;;;;;;18.01;65.77;101383.56;4944297;28;120888;-82
2022/08/22 04:01:20;;;;;;;12.90;9.77;;;;;;;17.97;66.30;101383.75;4913226;28;123270;-82
2022/08/22 04:04:35;;;;;;;13.80;9.87;;;;;;;17.93;67.01;101379.66;4944716;28;119933;-82
2022/08/22 04:07:34;;;;;;;12.23;9.30;;;;;;;17.92;66.10;101392.00;4898264;28;120465;-81
2022/08/22 04:10:24;;;;;;;15.63;10.60;;;;;;;17.93;66.34;101393.53;4906570;28;120346;-82
2022/08/22 04:12:58;;;;;;;15.50;10.02;;;;;;;17.92;66.35;101398.31;4913461;28;121093;-82
2022/08/22 04:15:36;;;;;;;14.05;10.00;;;;;;;17.86;67.12;101399.50;4926151;28;121362;-82
2022/08/22 04:18:07;;;;;;;14.75;11.20;;;;;;;17.76;67.58;101396.84;4961559;28;120381;-82
2022/08/22 04:21:09;;;;;;;13.93;9.73;;;;;;;17.66;66.55;101392.63;4927224;28;120689;-82
2022/08/22 04:23:56;;;;;;;14.90;9.63;;;;;;;17.71;66.89;101405.06;4928176;28;123839;-82
2022/08/22 04:26:48;;;;;;;12.90;10.53;;;;;;;17.73;68.07;101389.47;4926016;28;120705;-80
2022/08/22 04:29:24;;;;;;;13.47;9.60;;;;;;;17.76;67.42;101396.84;4943456;28;119911;-80
2022/08/22 04:32:02;;;;;;;14.30;9.15;;;;;;;17.79;66.03;101395.88;4950024;28;120701;-80
2022/08/22 04:34:32;;;;;;;13.43;10.30;;;;;;;17.81;67.29;101400.19;4921683;28;120656;-80
2022/08/22 04:37:07;;;;;;;15.63;11.98;;;;;;;17.88;67.78;101400.53;4945992;28;120376;-80
2022/08/22 04:39:41;;;;;;;13.93;10.77;;;;;;;17.91;66.53;101413.44;4947776;28;119755;-80
2022/08/22 04:42:20;;;;;;;15.90;10.23;;;;;;;17.93;66.23;101399.84;4913026;28;119834;-80
2022/08/22 04:44:56;;;;;;;17.10;11.20;;;;;;;17.94;65.39;101400.59;4942561;28;120168;-80
2022/08/22 04:47:37;;;;;;;17.93;12.63;;;;;;;18.01;67.16;101411.31;4945014;28;119794;-80
2022/08/22 04:50:22;;;;;;;14.45;10.98;;;;;;;18.06;66.77;101407.84;4924062;28;120441;-80
2022/08/22 04:53:13;;;;;;;16.40;11.70;;;;;;;18.10;66.79;101400.06;4925080;28;121385;-79
2022/08/22 04:56:00;;;;;;;16.63;12.07;;;;;;;18.25;67.54;101408.34;4935313;28;120445;-80
2022/08/22 04:59:02;;;;;;;16.75;12.70;;;;;;;18.33;67.10;101407.44;4929320;28;121448;-80
2022/08/22 05:01:58;;;;;;;17.23;12.60;;;;;;;18.46;66.56;101418.19;4943502;28;120660;-80
2022/08/22 05:04:30;;;;;;;15.88;12.05;;;;;;;18.57;67.23;101418.31;4946704;28;120074;-80
2022/08/22 05:07:03;;;;;;;14.43;11.80;;;;;;;18.63;67.61;101405.28;4945310;28;120002;-80
2022/08/22 05:09:33;;;;;;;14.93;11.85;;;;;;;18.75;67.19;101414.50;4946355;28;120541;-80
2022/08/22 05:12:07;;;;;;;13.73;10.93;;;;;;;18.81;66.00;101417.34;4909926;28;121660;-80
2022/08/22 05:14:57;;;;;;;23.70;11.07;;;;;;;18.88;66.38;101428.78;4943406;28;119934;-79
2022/08/22 05:17:26;;;;;;;16.35;10.95;;;;;;;18.95;66.30;101424.81;4944815;28;119703;-80
2022/08/22 05:19:59;;;;;;;14.03;11.33;;;;;;;19.01;66.81;101420.81;4950153;28;120532;-81
2022/08/22 05:22:34;;;;;;;17.48;12.18;;;;;;;19.12;67.16;101424.94;4945696;28;120073;-80
2022/08/22 05:25:07;;;;;;;14.10;10.50;;;;;;;19.17;66.24;101427.03;4929035;28;120141;-80
2022/08/22 05:27:38;;;;;;;12.57;9.50;;;;;;;19.31;65.87;101432.47;4946082;28;120376;-80
2022/08/22 05:30:26;;;;;;;12.40;9.48;;;;;;;19.34;65.08;101427.94;4930808;28;120341;-80
2022/08/22 05:33:26;;;;;;;15.43;10.07;;;;;;;19.48;65.90;101431.84;4938988;28;119623;-80
2022/08/22 05:35:57;;;;;;;14.43;9.93;;;;;;;19.53;66.65;101429.13;4890448;28;122867;-79
2022/08/22 05:38:29;;;;;;;15.75;10.30;;;;;;;19.71;65.88;101441.16;4928898;28;121004;-80
2022/08/22 05:41:10;;;;;;;13.70;10.80;;;;;;;19.81;66.57;101442.47;4929657;28;122757;-80
2022/08/22 05:43:40;;;;;;;17.17;10.02;;;;;;;19.86;66.31;101441.72;4948144;28;120180;-80
2022/08/22 05:46:15;;;;;;;14.73;10.05;;;;;;;19.90;66.19;101434.69;4928718;28;120394;-80
2022/08/22 05:48:54;;;;;;;14.33;10.80;;;;;;;19.98;66.27;101432.19;4945853;28;121191;-80
2022/08/22 05:51:38;;;;;;;15.83;10.23;;;;;;;20.12;66.49;101445.19;4948581;28;120647;-80
2022/08/22 05:54:15;;;;;;;17.48;9.82;;;;;;;20.23;66.22;101448.03;4914503;28;120724;-79
2022/08/22 05:56:49;;;;;;;14.95;7.85;;;;;;;20.32;65.90;101449.06;4914252;28;122418;-80
2022/08/22 05:59:26;;;;;;;14.30;8.33;;;;;;;20.40;66.01;101441.78;4920241;28;119710;-80
2022/08/22 06:02:01;;;;;;;14.47;8.50;;;;;;;20.51;66.16;101447.41;4931491;28;120695;-80
2022/08/22 06:04:51;;;;;;;12.20;8.63;;;;;;;20.59;66.30;101454.03;4947190;28;120449;-80
2022/08/22 06:07:24;;;;;;;15.52;8.00;;;;;;;20.65;65.67;101449.25;4935788;28;120346;-80
2022/08/22 06:10:15;;;;;;;15.38;7.72;;;;;;;20.74;66.25;101449.00;4930489;28;120505;-80
2022/08/22 06:12:50;;;;;;;15.20;7.43;;;;;;;20.77;65.82;101448.00;4915913;28;120959;-80
2022/08/22 06:15:21;;;;;;;14.57;7.07;;;;;;;20.86;65.75;101465.78;4945601;28;119886;-80
2022/08/22 06:17:51;;;;;;;14.60;6.27;;;;;;;20.92;65.80;101450.56;4932253;28;120635;-80
2022/08/22 06:20:24;;;;;;;15.70;5.90;;;;;;;20.99;65.99;101452.84;4932764;28;120134;-80
2022/08/22 06:22:57;;;;;;;15.50;5.80;;;;;;;21.07;65.81;101458.72;4948075;28;119831;-80
2022/08/22 06:25:31;;;;;;;12.88;5.43;;;;;;;21.20;66.15;101461.75;4946435;28;120158;-80
2022/08/22 06:28:06;;;;;;;11.32;4.70;;;;;;;21.29;65.92;101469.91;4948000;28;120430;-80
2022/08/22 06:30:34;;;;;;;13.25;4.65;;;;;;;21.25;65.28;101461.03;4931341;28;123672;-80
2022/08/22 06:33:06;;;;;;;10.30;3.75;;;;;;;21.22;65.74;101462.03;4925772;28;120724;-80
2022/08/22 06:38:33;;;;;;;12.27;4.30;;;;;;;21.30;66.11;101470.69;4942020;28;122365;-80
2022/08/22 06:41:07;;;;;;;10.25;3.60;;;;;;;21.33;65.85;101473.22;4946438;28;121816;-80
2022/08/22 06:43:38;;;;;;;10.10;3.75;;;;;;;21.40;66.01;101469.94;4914990;28;122387;-80
2022/08/22 06:46:06;;;;;;;17.08;4.18;;;;;;;21.48;65.90;101464.59;4928194;28;124997;-80
2022/08/22 06:48:36;;;;;;;15.85;4.63;;;;;;;21.56;65.19;101467.66;4932303;28;120764;-79
2022/08/22 06:51:07;;;;;;;21.38;4.93;;;;;;;21.65;64.28;101479.31;4945144;28;122099;-80
2022/08/22 06:53:43;;;;;;;10.55;3.70;;;;;;;21.69;65.06;101479.81;4945027;28;120647;-80
2022/08/22 06:56:10;;;;;;;15.23;3.90;;;;;;;21.76;65.73;101473.69;4945129;28;120209;-80
2022/08/22 06:58:41;;;;;;;;;;;;;;;21.90;64.68;101482.31;4933788;28;123796;-80
2022/08/22 07:01:19;;;;;;;;;;;;;;;22.04;64.09;101484.88;4926535;28;121638;-80
2022/08/22 07:03:48;;;;;;;;;;;;;;;22.21;63.86;101484.06;4945824;28;120762;-80
2022/08/22 07:06:20;;;;;;;;;;;;;;;22.34;63.24;101476.66;4931524;28;123176;-80
2022/08/22 07:08:51;;;;;;;;;;;;;;;22.47;62.74;101473.28;4931617;28;120789;-80
2022/08/22 07:11:26;;;;;;;;;;;;;;;22.56;62.27;101478.59;4943651;28;122228;-80
2022/08/22 07:14:12;;;;;;;;;;;;;;;22.64;62.34;101484.41;4917550;28;124742;-80
2022/08/22 07:16:44;;;;;;;;;;;;;;;22.69;61.92;101483.59;4926449;28;123458;-80
2022/08/22 07:19:22;;;;;;;;;;;;;;;22.70;60.65;101479.53;4944685;28;122210;-80
2022/08/22 07:21:48;;;;;;;;;;;;;;;22.72;59.90;101481.84;4958631;28;121682;-80
2022/08/22 07:24:15;;;;;;;;;;;;;;;22.76;59.80;101485.13;4942965;28;121785;-79
2022/08/22 07:26:40;;;;;;;;;;;;;;;22.81;59.46;101481.53;4942836;28;121161;-79
2022/08/22 07:29:15;;;;;;;;;;;;;;;22.89;59.74;101490.91;4946994;28;120776;-79
2022/08/22 07:31:52;;;;;;;;;;;;;;;22.97;58.71;101486.31;4931471;28;122869;-80
2022/08/22 07:34:30;;;;;;;;;;;;;;;23.05;58.63;101492.09;4923377;28;124429;-80
2022/08/22 07:36:59;;;;;;;;;;;;;;;23.19;58.48;101496.59;4949523;28;121400;-79
2022/08/22 07:39:25;;;;;;;;;;;;;;;23.32;58.47;101496.00;4944758;28;121687;-80
2022/08/22 07:41:57;;;;;;;;;;;;;;;23.46;58.42;101492.06;4922483;28;121470;-80
2022/08/22 07:44:26;;;;;;;;;;;;;;;23.54;57.44;101487.41;4943972;28;123283;-80
2022/08/22 07:47:00;;;;;;;;;;;;;;;23.58;57.33;101485.88;4945938;28;124942;-79
2022/08/22 07:49:33;;;;;;;;;;;;;;;23.65;57.59;101492.16;4952362;28;121822;-79
2022/08/22 07:52:10;;;;;;;;;;;;;;;23.74;57.75;101481.41;4946083;28;124253;-80
2022/08/22 07:54:36;;;;;;;;;;;;;;;23.87;56.88;101489.91;4945907;28;122578;-80
2022/08/22 07:57:05;;;;;;;;;;;;;;;24.05;57.17;101487.72;4927591;28;121748;-80
2022/08/22 07:59:33;;;;;;;;;;;;;;;24.23;55.56;101483.44;4932618;28;123964;-80
2022/08/22 08:01:59;;;;;;;;;;;;;;;24.43;55.50;101485.78;4926357;28;122252;-79
2022/08/22 08:04:34;;;;;;;;;;;;;;;24.56;54.02;101480.25;4928176;28;124849;-80
2022/08/22 08:07:01;;;;;;;;;;;;;;;24.66;54.38;101491.88;4942817;28;122569;-80
2022/08/22 08:09:30;;;;;;;;;;;;;;;24.70;53.72;101498.69;4929479;28;122031;-80
2022/08/22 08:12:20;;;;;;;;;;;;;;;24.76;54.24;101488.16;4941834;28;122587;-79
2022/08/22 08:14:51;;;;;;;;;;;;;;;24.82;53.71;101487.31;4937069;28;122405;-80
2022/08/22 08:17:19;;;;;;;;;;;;;;;24.85;53.23;101489.09;4911366;28;121981;-80
2022/08/22 08:19:46;;;;;;;;;;;;;;;24.85;52.52;101483.47;4909589;28;123972;-80
2022/08/22 08:22:17;;;;;;;;;;;;;;;24.87;52.97;101487.25;4924819;28;123102;-80
2022/08/22 08:24:43;;;;;;;;;;;;;;;24.91;53.60;101490.50;4927233;28;125368;-80
2022/08/22 08:29:58;;;;;;;;;;;;;;;25.09;53.55;101484.16;4957903;28;121959;-80
2022/08/22 08:32:26;;;;;;;;;;;;;;;25.11;52.55;101491.28;4926741;28;122546;-80
2022/08/22 08:34:54;;;;;;;;;;;;;;;25.12;52.24;101487.19;4906317;28;125739;-79
2022/08/22 08:37:28;;;;;;;;;;;;;;;25.17;52.26;101487.09;4909894;28;122516;-80
2022/08/22 08:39:56;;;;;;;;;;;;;;;25.25;52.06;101485.19;4905413;28;124225;-82
2022/08/22 08:42:30;;;;;;;;;;;;;;;25.42;52.16;101489.78;4929251;28;125164;-81
2022/08/22 08:45:14;;;;;;;;;;;;;;;25.56;52.52;101488.53;4912498;28;124024;-81
2022/08/22 08:47:40;;;;;;;;;;;;;;;25.59;51.50;101479.78;4928479;28;126306;-81
2022/08/22 08:50:30;;;;;;;6.55;2.10;;;;;;;25.60;51.72;101481.28;4931772;28;124142;-81
2022/08/22 08:53:07;;;;;;;5.07;1.95;;;;;;;25.59;51.99;101485.41;4935662;28;122604;-81
2022/08/22 08:55:33;;;;;;;7.20;2.53;;;;;;;25.55;50.30;101484.97;4939235;28;122434;-81
2022/08/22 08:58:15;;;;;;;6.82;2.35;;;;;;;25.47;50.12;101484.06;4917633;28;122131;-81
2022/08/22 09:00:41;;;;;;;5.18;2.10;;;;;;;25.36;50.37;101478.63;4935361;28;124463;-81
2022/08/22 09:03:17;;;;;;;4.82;1.90;;;;;;;25.26;51.25;101477.50;4943581;28;122695;-81
2022/08/22 09:05:52;;;;;;;6.68;2.35;;;;;;;25.17;50.83;101481.47;4946994;28;122356;-81
2022/08/22 09:08:34;;;;;;;8.15;2.40;;;;;;;25.12;51.31;101481.56;4927709;28;126178;-82
2022/08/22 09:11:24;;;;;;;5.65;2.25;;;;;;;25.13;51.85;101472.63;4940295;28;122874;-81
2022/08/22 09:14:15;;;;;;;9.15;2.20;;;;;;;25.21;49.02;101483.97;4957098;28;123610;-81
2022/08/22 09:17:21;;;;;;;6.28;2.60;;;;;;;25.27;49.04;101471.34;4939592;28;123191;-81
2022/08/22 09:20:10;;;;;;;6.18;2.10;;;;;;;25.46;49.15;101460.06;4941555;28;122259;-81
2022/08/22 09:22:36;;;;;;;7.47;2.25;;;;;;;25.61;49.25;101474.38;4923287;28;124640;-81
2022/08/22 09:25:14;;;;;;;5.35;1.92;;;;;;;25.68;47.46;101473.00;4938908;28;123845;-81
2022/08/22 09:28:24;;;;;;;5.65;2.35;;;;;;;25.72;48.25;101472.69;4918415;28;122647;-81
2022/08/22 09:31:08;;;;;;;5.38;2.10;;;;;;;25.80;48.67;101470.78;4944397;28;122586;-82
2022/08/22 09:33:50;;;;;;;4.50;2.03;;;;;;;25.78;46.98;101462.09;4906364;28;122342;-82
2022/08/22 09:36:25;;;;;;;7.00;2.00;;;;;;;25.83;47.29;101459.19;4923071;28;124712;-81
2022/08/22 09:39:09;;;;;;;3.95;1.75;;;;;;;26.00;48.52;101478.53;4934513;28;124421;-81
2022/08/22 09:41:51;;;;;;;6.13;2.45;;;;;;;26.12;47.97;101457.38;4938035;28;122626;-82
2022/08/22 09:44:29;;;;;;;4.97;2.10;;;;;;;26.41;47.53;101463.19;4935235;28;124645;-81
2022/08/22 09:47:07;;;;;;;6.95;2.67;;;;;;;26.43;46.89;101457.78;4920502;28;125424;-81
2022/08/22 09:49:35;;;;;;;6.80;2.20;;;;;;;26.42;47.48;101461.91;4935013;28;122487;-81
2022/08/22 09:52:35;;;;;;;9.02;2.35;;;;;;;26.43;48.57;101460.59;4939666;28;125581;-82
2022/08/22 09:55:23;;;;;;;6.22;2.10;;;;;;;26.61;46.63;101462.50;4919043;28;125366;-82
2022/08/22 09:58:22;;;;;;;5.07;2.05;;;;;;;26.78;45.75;101464.97;4919477;28;122510;-82
2022/08/22 10:01:07;;;;;;;6.63;2.17;;;;;;;26.82;46.78;101460.50;4901570;28;123522;-81
2022/08/22 10:04:17;;;;;;;5.72;2.30;;;;;;;26.82;46.40;101468.94;4921530;28;123267;-81
2022/08/22 10:06:49;;;;;;;7.97;2.15;;;;;;;26.82;46.87;101463.31;4936293;28;124872;-81
2022/08/22 10:09:25;;;;;;;4.43;1.70;;;;;;;26.85;47.20;101459.41;4919619;28;126392;-81
2022/08/22 10:12:15;;;;;;;8.00;2.22;;;;;;;26.98;47.15;101467.06;4954188;28;123143;-81
2022/08/22 10:15:06;;;;;;;6.30;1.98;;;;;;;27.12;47.61;101453.69;4922514;28;122492;-81
2022/08/22 10:17:53;;;;;;;6.10;2.15;;;;;;;27.13;45.83;101455.97;4935329;28;122558;-81
2022/08/22 10:20:28;;;;;;;6.05;2.17;;;;;;;27.06;44.84;101461.53;4923485;28;122243;-81
2022/08/22 10:23:27;;;;;;;5.28;2.13;;;;;;;27.10;43.67;101456.31;4921112;28;125104;-81
2022/08/22 10:26:25;;;;;;;8.25;2.15;;;;;;;27.02;45.27;101459.06;4924892;28;123688;-81
2022/08/22 10:29:29;;;;;;;7.20;1.92;;;;;;;26.85;44.89;101459.41;4928085;28;124319;-81
2022/08/22 10:32:07;;;;;;;6.90;2.45;;;;;;;26.76;45.23;101453.50;4883097;28;122690;-81
2022/08/22 10:34:39;;;;;;;8.15;2.38;;;;;;;26.72;45.01;101453.06;4916908;28;126055;-81
2022/08/22 10:37:20;;;;;;;7.47;2.55;;;;;;;26.66;44.86;101447.56;4891929;28;124408;-81
2022/08/22 10:40:05;;;;;;;6.60;2.20;;;;;;;26.64;44.96;101461.41;4937205;28;125968;-81
2022/08/22 10:42:34;;;;;;;5.18;1.95;;;;;;;26.64;44.79;101449.41;4947347;28;122641;-82
2022/08/22 10:45:26;;;;;;;7.85;2.50;;;;;;;26.60;45.14;101441.31;4911188;28;125433;-81
2022/08/22 10:47:52;;;;;;;4.55;1.73;;;;;;;26.66;44.27;101447.56;4927240;28;122838;-81
2022/08/22 10:50:41;;;;;;;3.95;1.70;;;;;;;26.69;44.27;101445.72;4927305;28;124955;-81
2022/08/22 10:53:44;;;;;;;7.57;2.25;;;;;;;26.71;44.48;101449.47;4941521;28;123497;-81
2022/08/22 10:56:19;;;;;;;6.60;1.95;;;;;;;26.73;44.62;101444.06;4910441;28;124155;-81
2022/08/22 10:59:34;;;;;;;7.38;2.20;;;;;;;26.68;44.17;101444.19;4943827;28;122049;-81
2022/08/22 11:02:36;;;;;;;4.97;2.08;;;;;;;26.42;45.46;101431.72;4881969;28;125266;-81
2022/08/22 11:05:37;;;;;;;8.52;2.40;;;;;;;26.27;46.00;101437.13;4960698;28;123406;-81
2022/08/22 11:08:23;;;;;;;8.18;2.13;;;;;;;26.14;45.82;101440.72;4946213;28;122651;-81
2022/08/22 11:11:01;;;;;;;12.55;2.80;;;;;;;26.11;46.33;101438.97;4911511;28;122661;-81
2022/08/22 11:13:44;;;;;;;8.50;2.38;;;;;;;26.12;46.56;101436.94;4926768;28;124640;-81
2022/08/22 11:16:28;;;;;;;8.68;2.47;;;;;;;26.05;45.89;101434.78;4907817;28;124323;-81
2022/08/22 11:19:04;;;;;;;5.30;2.20;;;;;;;25.98;46.79;101433.34;4952710;28;124645;-80
2022/08/22 11:21:47;;;;;;;7.25;2.20;;;;;;;25.88;46.21;101447.09;4944371;28;123036;-81
2022/08/22 11:24:58;;;;;;;7.35;2.30;;;;;;;25.79;46.46;101435.50;4949108;28;123335;-80
2022/08/22 11:27:42;;;;;;;7.55;2.20;;;;;;;25.74;47.37;101447.63;4920160;28;122448;-80
2022/08/22 11:30:13;;;;;;;;;;;;;;;25.78;46.32;101440.38;4907208;28;126301;-80
2022/08/22 11:32:58;;;;;;;5.35;1.95;;;;;;;25.87;47.47;101442.00;4945229;28;126230;-80
2022/08/22 11:36:19;;;;;;;6.55;2.33;;;;;;;25.94;47.75;101442.13;4922169;28;124904;-81
2022/08/22 11:38:56;;;;;;;7.20;2.22;;;;;;;25.93;47.29;101443.41;4936016;28;123046;-81
2022/08/22 11:41:37;;;;;;;7.97;2.70;;;;;;;25.90;47.20;101433.25;4942506;28;123064;-80
2022/08/22 11:44:12;;;;;;;4.18;1.90;;;;;;;25.81;46.83;101432.94;4924203;28;124882;-81
2022/08/22 11:46:42;;;;;;;5.65;1.98;;;;;;;25.74;47.04;101439.94;4906591;28;126315;-81
2022/08/22 11:49:20;;;;;;;6.78;2.35;;;;;;;25.78;46.65;101448.03;4907107;28;124588;-81
2022/08/22 11:52:14;;;;;;;5.28;1.83;;;;;;;25.84;48.04;101449.47;4909059;28;123360;-81
2022/08/22 11:55:07;;;;;;;6.03;2.17;;;;;;;25.90;47.09;101441.69;4923237;28;125672;-81
2022/08/22 11:57:41;;;;;;;6.43;2.13;;;;;;;25.98;48.45;101441.78;4945596;28;124267;-81
2022/08/22 12:00:17;;;;;;;7.55;2.00;;;;;;;26.06;47.16;101448.28;4941137;28;126742;-81
2022/08/22 12:03:04;;;;;;;4.70;2.00;;;;;;;26.12;48.21;101440.50;4924787;28;123365;-81
2022/08/22 12:05:34;;;;;;;6.53;2.10;;;;;;;26.13;47.59;101444.81;4941226;28;123688;-81
2022/08/22 12:08:10;;;;;;;5.28;1.77;;;;;;;26.24;47.02;101453.00;4939482;28;125498;-80
2022/08/22 12:10:47;;;;;;;5.93;2.30;;;;;;;26.37;47.78;101443.09;4938822;28;123431;-80
2022/08/22 12:13:19;;;;;;;;;;;;;;;26.48;45.81;101440.78;4926886;28;122922;-80
2022/08/22 12:16:02;;;;;;;6.47;2.10;;;;;;;26.50;46.23;101437.41;4907634;28;125414;-80
2022/08/22 12:18:42;;;;;;;5.90;1.93;;;;;;;26.54;45.84;101441.44;4941434;28;122260;-80
2022/08/22 12:21:42;;;;;;;6.47;2.08;;;;;;;26.52;45.21;101435.59;4926543;28;124896;-81
2022/08/22 12:24:23;;;;;;;5.85;2.08;;;;;;;26.55;45.99;101442.19;4956831;28;122499;-81
2022/08/22 12:26:54;;;;;;;9.02;2.55;;;;;;;26.54;46.26;101441.44;4906301;28;126014;-80
2022/08/22 12:29:31;;;;;;;6.57;2.00;;;;;;;26.48;46.33;101437.97;4924660;28;122402;-81
2022/08/22 12:31:57;;;;;;;7.10;2.10;;;;;;;26.36;46.35;101425.47;4940265;28;122692;-80